Time;durP1;ratioP1;P1;durP2;ratioP2;P2;SDS_P1;SDS_P2;PMS_P1;PMS_P2;Temp;Humidity;BMP_temperature;BMP_pressure;BME280_temperature;BME280_humidity;BME280_pressure;Samples;Min_cycle;Max_cycle;Signal;HPM_P1;HPM_P2
2022/06/23 00:00:36;;;;;;;7.00;6.30;;;;;;;25.93;43.91;94776.22;6137756;28;103850;-55
2022/06/23 00:03:42;;;;;;;7.87;7.03;;;;;;;25.93;44.37;94774.31;6137131;28;104445;-55
2022/06/23 00:06:49;;;;;;;7.47;6.77;;;;;;;25.95;44.25;94787.41;6118105;28;103881;-55
2022/06/23 00:09:53;;;;;;;7.10;6.47;;;;;;;25.93;44.23;94797.69;6135924;28;104402;-54
2022/06/23 00:12:56;;;;;;;8.53;6.80;;;;;;;25.93;44.07;94786.97;6137351;28;105238;-54
2022/06/23 00:16:00;;;;;;;8.60;7.13;;;;;;;25.94;44.52;94788.50;6136722;28;104633;-53
2022/06/23 00:19:07;;;;;;;7.43;6.90;;;;;;;25.92;44.44;94786.19;6127930;28;104916;-54
2022/06/23 00:22:12;;;;;;;8.27;6.87;;;;;;;25.93;44.06;94784.28;6122190;28;103964;-53
2022/06/23 00:25:38;;;;;;;7.13;6.60;;;;;;;25.94;44.38;94793.88;6117918;28;103981;-54
2022/06/23 00:28:45;;;;;;;8.50;7.57;;;;;;;25.94;44.61;94797.34;6133754;28;103752;-55
2022/06/23 00:31:56;;;;;;;8.77;7.03;;;;;;;25.94;44.55;94800.03;6121568;28;103931;-55
2022/06/23 00:35:04;;;;;;;7.40;6.60;;;;;;;25.92;44.29;94780.81;6137240;28;103877;-54
2022/06/23 00:38:20;;;;;;;7.73;7.03;;;;;;;25.87;44.23;94778.34;6130120;28;103832;-55
2022/06/23 00:41:30;;;;;;;8.00;7.20;;;;;;;25.78;44.31;94766.97;6128876;28;104291;-54
2022/06/23 00:44:38;;;;;;;6.93;5.97;;;;;;;25.70;44.71;94751.75;6134883;28;103901;-54
2022/06/23 00:47:48;;;;;;;7.20;6.23;;;;;;;25.62;44.21;94721.28;6131591;28;104030;-54
2022/06/23 00:51:04;;;;;;;6.10;5.50;;;;;;;25.64;44.61;94731.69;6132462;28;104145;-54
2022/06/23 00:54:25;;;;;;;6.17;5.57;;;;;;;25.62;44.76;94750.78;6125705;28;104786;-66
2022/06/23 00:57:33;;;;;;;6.80;5.70;;;;;;;25.67;44.34;94760.47;6127107;28;104116;-53
2022/06/23 01:00:41;;;;;;;8.20;6.03;;;;;;;25.67;44.13;94757.81;6136229;28;103819;-54
2022/06/23 01:03:56;;;;;;;6.73;5.73;;;;;;;25.63;44.82;94768.41;6118986;28;104294;-53
2022/06/23 01:07:04;;;;;;;7.70;5.60;;;;;;;25.63;44.46;94763.06;6126798;28;103737;-53
2022/06/23 01:10:17;;;;;;;6.53;5.97;;;;;;;25.61;44.01;94759.94;6134131;28;103622;-54
2022/06/23 01:13:32;;;;;;;9.90;5.90;;;;;;;25.60;44.37;94755.69;6128448;28;104784;-53
2022/06/23 01:16:44;;;;;;;6.03;5.43;;;;;;;25.60;44.10;94761.06;6124153;28;104187;-53
2022/06/23 01:20:12;;;;;;;8.27;6.23;;;;;;;25.60;43.94;94752.22;6116404;28;103897;-54
2022/06/23 01:23:31;;;;;;;7.47;5.60;;;;;;;25.57;43.91;94748.31;6121388;28;104000;-53
2022/06/23 01:27:16;;;;;;;10.23;7.10;;;;;;;25.56;44.26;94746.75;6129141;28;103893;-53
2022/06/23 01:30:23;;;;;;;8.03;6.00;;;;;;;25.53;44.04;94735.91;6084057;28;103604;-54
2022/06/23 01:33:34;;;;;;;6.80;5.40;;;;;;;25.62;44.11;94739.28;6133294;28;104014;-53
2022/06/23 01:36:44;;;;;;;6.43;5.50;;;;;;;25.64;44.33;94737.81;6122693;28;104523;-54
2022/06/23 01:39:54;;;;;;;7.10;6.40;;;;;;;25.50;44.48;94734.69;6107587;28;105052;-53
2022/06/23 01:43:02;;;;;;;7.57;6.00;;;;;;;25.51;44.44;94727.44;6134001;28;104900;-53
2022/06/23 01:46:12;;;;;;;7.07;5.83;;;;;;;25.46;44.50;94731.13;6134735;28;105097;-53
2022/06/23 01:49:19;;;;;;;6.73;6.20;;;;;;;25.46;44.09;94723.09;6129990;28;103722;-53
2022/06/23 01:52:23;;;;;;;6.87;6.17;;;;;;;25.43;44.36;94726.44;6130287;28;103678;-53
2022/06/23 01:55:31;;;;;;;7.60;6.13;;;;;;;25.40;44.02;94723.66;6122377;28;107205;-54
2022/06/23 01:58:47;;;;;;;8.47;6.37;;;;;;;25.37;44.03;94722.41;6133774;28;103698;-57
2022/06/23 02:01:57;;;;;;;5.97;5.40;;;;;;;25.37;44.34;94711.69;6123929;28;103679;-68
2022/06/23 02:05:05;;;;;;;6.30;5.70;;;;;;;25.35;44.08;94709.34;6126281;28;103996;-53
2022/06/23 02:08:27;;;;;;;6.87;5.60;;;;;;;25.33;44.21;94708.88;6132878;28;103932;-54
2022/06/23 02:11:38;;;;;;;6.17;5.60;;;;;;;25.37;44.20;94695.59;6137076;28;103835;-55
2022/06/23 02:14:50;;;;;;;7.07;5.77;;;;;;;25.28;44.55;94708.31;6128327;28;105067;-53
2022/06/23 02:18:01;;;;;;;6.60;5.93;;;;;;;25.30;44.12;94708.75;6133586;28;103966;-55
2022/06/23 02:21:19;;;;;;;5.93;5.37;;;;;;;25.32;44.33;94709.97;6134019;28;103944;-52
2022/06/23 02:24:30;;;;;;;6.37;5.67;;;;;;;25.27;44.42;94704.06;6119870;28;103753;-53
2022/06/23 02:27:42;;;;;;;9.87;5.77;;;;;;;25.22;44.62;94704.31;6135500;28;104969;-53
2022/06/23 02:30:51;;;;;;;7.50;5.30;;;;;;;25.18;44.38;94703.38;6133929;28;103686;-52
2022/06/23 02:34:05;;;;;;;9.67;5.90;;;;;;;25.24;44.33;94710.09;6133075;28;103763;-53
2022/06/23 02:37:51;;;;;;;6.67;5.97;;;;;;;25.21;44.47;94705.41;6123901;28;104790;-54
2022/06/23 02:40:57;;;;;;;6.13;5.53;;;;;;;25.24;44.47;94710.09;6118367;28;103734;-54
2022/06/23 02:44:22;;;;;;;6.00;5.50;;;;;;;25.25;44.37;94712.44;6136084;28;104994;-53
2022/06/23 02:47:34;;;;;;;8.40;5.87;;;;;;;25.28;44.14;94708.31;6117714;28;103659;-54
2022/06/23 02:50:53;;;;;;;8.07;6.00;;;;;;;25.26;44.53;94711.34;6112389;28;103869;-54
2022/06/23 02:54:29;;;;;;;6.93;6.13;;;;;;;25.25;44.46;94709.00;6133682;28;103658;-55
2022/06/23 02:57:40;;;;;;;8.10;6.00;;;;;;;25.27;44.64;94720.94;6123903;28;103646;-56
2022/06/23 03:00:47;;;;;;;7.70;5.83;;;;;;;25.30;44.12;94719.47;6133707;28;103889;-55
2022/06/23 03:03:59;;;;;;;8.57;6.07;;;;;;;25.25;43.96;94719.69;6125302;28;104899;-54
2022/06/23 03:07:09;;;;;;;7.37;6.67;;;;;;;25.23;44.05;94724.63;6130748;28;105199;-51
2022/06/23 03:10:17;;;;;;;7.73;6.17;;;;;;;25.37;44.32;94727.75;6117421;28;103902;-51
2022/06/23 03:13:31;;;;;;;8.70;6.50;;;;;;;25.50;43.75;94720.50;6159380;28;105059;-50
2022/06/23 03:16:37;;;;;;;10.00;5.60;;;;;;;25.57;43.63;94734.94;6160020;28;104302;-51
2022/06/23 03:19:45;;;;;;;6.80;5.87;;;;;;;25.61;43.72;94738.50;6126776;28;104633;-53
2022/06/23 03:22:56;;;;;;;6.97;6.27;;;;;;;25.60;44.05;94731.56;6132515;28;104370;-51
2022/06/23 03:26:08;;;;;;;7.00;6.37;;;;;;;25.61;44.03;94727.78;6138183;28;103751;-52
2022/06/23 03:29:19;;;;;;;6.23;5.53;;;;;;;25.63;43.92;94725.53;6136801;28;104681;-53
2022/06/23 03:32:28;;;;;;;7.33;6.33;;;;;;;25.47;44.23;94716.59;6122568;28;104369;-51
2022/06/23 03:35:41;;;;;;;7.43;6.83;;;;;;;25.41;47.05;94712.59;6122683;28;104486;-52
2022/06/23 03:42:20;;;;;;;8.93;6.97;;;;;;;25.64;46.92;94711.00;6135140;28;104151;-63
2022/06/23 03:45:28;;;;;;;7.20;6.50;;;;;;;25.65;46.43;94709.91;6116351;28;103234;-52
2022/06/23 03:48:40;;;;;;;9.73;6.80;;;;;;;25.64;45.84;94718.28;6159111;28;103766;-52
2022/06/23 03:51:50;;;;;;;12.63;6.53;;;;;;;25.63;45.53;94703.31;6145906;28;103625;-53
2022/06/23 03:55:00;;;;;;;8.03;7.10;;;;;;;25.57;44.31;94705.44;6127886;28;104907;-53
2022/06/23 03:58:15;;;;;;;9.47;7.50;;;;;;;25.62;45.03;94715.94;6137174;28;104766;-59
2022/06/23 04:01:25;;;;;;;25.33;6.70;;;;;;;25.65;45.20;94728.66;6138480;28;103765;-52
2022/06/23 04:04:47;;;;;;;6.97;6.10;;;;;;;25.72;45.19;94721.97;6132499;28;104024;-53
2022/06/23 04:07:54;;;;;;;9.20;6.53;;;;;;;25.75;45.09;94716.72;6128358;28;103826;-52
2022/06/23 04:11:43;;;;;;;10.67;6.90;;;;;;;25.80;45.56;94723.72;6124277;28;103752;-52
2022/06/23 04:14:42;;;;;;;9.23;6.30;;;;;;;25.79;45.64;94724.84;6120489;28;103431;-53
2022/06/23 04:17:49;;;;;;;9.40;7.17;;;;;;;25.78;46.10;94731.34;6122528;28;104930;-51
2022/06/23 04:20:55;;;;;;;11.70;7.17;;;;;;;25.73;45.60;94732.34;6135694;28;103873;-52
2022/06/23 04:24:01;;;;;;;7.43;6.80;;;;;;;25.74;45.19;94735.81;6127253;28;103645;-57
2022/06/23 04:27:15;;;;;;;9.53;7.23;;;;;;;25.72;45.08;94727.34;6112776;28;103960;-70
2022/06/23 04:30:23;;;;;;;10.23;6.90;;;;;;;25.73;45.23;94735.03;6103116;28;104067;-54
2022/06/23 04:33:28;;;;;;;7.07;6.40;;;;;;;25.74;45.22;94733.13;6114584;28;104880;-53
2022/06/23 04:36:34;;;;;;;9.50;8.60;;;;;;;25.73;45.22;94729.69;6113723;28;104835;-52
2022/06/23 04:39:41;;;;;;;11.93;8.57;;;;;;;25.69;45.14;94724.19;6126330;28;104006;-52
2022/06/23 04:42:53;;;;;;;9.00;8.10;;;;;;;25.68;45.52;94730.66;6156415;28;103628;-52
2022/06/23 04:45:59;;;;;;;8.90;8.10;;;;;;;25.68;45.39;94727.97;6162211;28;104800;-53
2022/06/23 04:49:06;;;;;;;9.40;8.50;;;;;;;25.67;45.35;94731.78;6161368;28;103716;-53
2022/06/23 04:52:18;;;;;;;9.57;8.57;;;;;;;25.66;45.43;94727.53;6150657;28;103704;-53
2022/06/23 04:55:25;;;;;;;10.50;9.60;;;;;;;25.56;45.44;94724.53;6160544;28;103979;-52
2022/06/23 04:58:30;;;;;;;12.23;8.67;;;;;;;25.59;45.80;94729.22;6161537;28;104967;-52
2022/06/23 05:01:39;;;;;;;11.97;10.30;;;;;;;25.63;45.89;94730.13;6162126;28;107308;-52
2022/06/23 05:04:45;;;;;;;12.30;11.10;;;;;;;25.66;45.54;94721.41;6152856;28;105073;-52
2022/06/23 05:07:53;;;;;;;10.40;9.30;;;;;;;25.67;45.24;94714.91;6161115;28;103683;-51
2022/06/23 05:11:07;;;;;;;10.30;9.30;;;;;;;25.67;45.54;94714.91;6161518;28;103973;-54
2022/06/23 05:14:21;;;;;;;11.13;9.03;;;;;;;25.69;45.42;94712.69;6150841;28;103769;-52
2022/06/23 05:17:27;;;;;;;10.37;8.77;;;;;;;25.70;45.21;94714.25;6161606;28;103804;-52
2022/06/23 05:20:41;;;;;;;11.00;9.33;;;;;;;25.74;45.38;94711.69;6161158;28;104865;-51
2022/06/23 05:23:47;;;;;;;9.87;8.97;;;;;;;25.74;45.41;94715.16;6161472;28;104218;-53
2022/06/23 05:26:54;;;;;;;8.63;7.87;;;;;;;25.77;45.59;94732.47;6150432;28;104715;-53
2022/06/23 05:30:04;;;;;;;8.70;8.00;;;;;;;25.78;45.40;94728.66;6161108;28;104715;-52
2022/06/23 05:33:16;;;;;;;12.07;8.30;;;;;;;25.75;45.54;94708.66;6161325;28;103668;-54
2022/06/23 05:36:24;;;;;;;9.37;8.47;;;;;;;25.76;45.30;94698.72;6155189;28;103918;-54
2022/06/23 05:39:34;;;;;;;8.67;7.87;;;;;;;25.79;45.65;94714.91;6148225;28;103728;-53
2022/06/23 05:42:42;;;;;;;10.13;9.13;;;;;;;25.82;46.05;94737.59;6135095;28;103904;-52
2022/06/23 05:45:52;;;;;;;9.90;9.00;;;;;;;25.82;45.74;94718.81;6136989;28;103989;-53
2022/06/23 05:48:59;;;;;;;9.60;8.80;;;;;;;25.80;45.88;94711.13;6125514;28;103776;-57
2022/06/23 05:52:06;;;;;;;9.17;8.27;;;;;;;25.82;45.76;94742.94;6136298;28;103758;-52
2022/06/23 05:55:17;;;;;;;10.53;9.43;;;;;;;25.80;45.99;94778.13;6136234;28;103688;-53
2022/06/23 05:58:29;;;;;;;9.50;8.60;;;;;;;25.76;45.94;94835.44;6135456;28;104601;-52
2022/06/23 06:01:37;;;;;;;10.07;8.80;;;;;;;25.79;46.07;95046.53;6126173;28;103866;-53
2022/06/23 06:04:46;;;;;;;11.57;8.77;;;;;;;25.67;46.25;95128.47;6136083;28;104039;-54
2022/06/23 06:07:49;;;;;;;10.00;8.67;;;;;;;25.57;47.54;95034.28;6136431;28;103825;-52
2022/06/23 06:10:55;;;;;;;10.83;8.90;;;;;;;25.42;48.22;94874.13;6127375;28;104740;-52
2022/06/23 06:13:59;;;;;;;14.10;7.97;;;;;;;25.39;48.09;94907.72;6135846;28;103909;-52
2022/06/23 06:17:05;;;;;;;10.00;7.90;;;;;;;25.33;48.86;94901.72;6136239;28;102999;-52
2022/06/23 06:20:11;;;;;;;8.50;7.60;;;;;;;25.44;48.62;94952.28;6135981;28;104861;-52
2022/06/23 06:23:18;;;;;;;8.30;6.60;;;;;;;25.42;48.94;94949.13;6125735;28;104341;-51
2022/06/23 06:26:25;;;;;;;9.80;7.00;;;;;;;25.46;48.30;94942.78;6136128;28;103108;-52
2022/06/23 06:29:36;;;;;;;13.50;7.40;;;;;;;25.50;47.76;94942.91;6134814;28;104070;-52
2022/06/23 06:32:42;;;;;;;8.70;7.80;;;;;;;25.53;47.79;94915.44;6135203;28;104792;-54
2022/06/23 06:35:54;;;;;;;9.43;7.20;;;;;;;25.54;47.95;94888.34;6128573;28;104268;-52
2022/06/23 06:39:05;;;;;;;7.97;6.80;;;;;;;25.54;47.82;94874.94;6139449;28;103727;-53
2022/06/23 06:42:13;;;;;;;7.63;6.60;;;;;;;25.55;47.71;94873.03;6159939;28;103833;-52
2022/06/23 06:45:21;;;;;;;7.53;6.77;;;;;;;25.59;47.71;94874.72;6150146;28;103872;-52
2022/06/23 06:48:29;;;;;;;8.60;6.90;;;;;;;25.60;47.46;94870.16;6160057;28;103970;-52
2022/06/23 06:51:32;;;;;;;8.00;6.70;;;;;;;25.61;47.33;94867.13;6160073;28;104001;-52
2022/06/23 06:54:46;;;;;;;7.67;6.27;;;;;;;25.63;47.36;94859.53;6163485;28;103833;-53
2022/06/23 06:57:55;;;;;;;10.63;6.33;;;;;;;25.69;47.83;94852.06;6152569;28;103937;-51
2022/06/23 07:01:06;;;;;;;7.80;6.20;;;;;;;25.73;48.21;94841.47;6163594;28;104641;-54
2022/06/23 07:04:16;;;;;;;7.43;6.60;;;;;;;25.76;48.23;94843.47;6163502;28;103810;-52
2022/06/23 07:07:25;;;;;;;9.00;6.30;;;;;;;25.76;48.05;94849.63;6158917;28;103851;-51
2022/06/23 07:10:35;;;;;;;7.53;6.40;;;;;;;25.76;48.04;94846.16;6162484;28;103696;-50
2022/06/23 07:13:44;;;;;;;7.20;5.87;;;;;;;25.77;47.80;94845.81;6163579;28;103818;-51
2022/06/23 07:16:56;;;;;;;8.87;5.90;;;;;;;25.80;47.69;94841.69;6164175;28;103729;-54
2022/06/23 07:20:06;;;;;;;6.13;5.63;;;;;;;25.80;47.53;94855.09;6152965;28;103758;-53
2022/06/23 07:23:15;;;;;;;9.50;6.57;;;;;;;25.80;47.49;94852.41;6164573;28;105329;-51
2022/06/23 07:26:36;;;;;;;8.03;7.10;;;;;;;25.80;47.91;94855.88;6163438;28;103845;-53
2022/06/23 07:29:45;;;;;;;6.63;5.70;;;;;;;25.81;47.61;94851.28;6158893;28;105327;-57
2022/06/23 07:32:51;;;;;;;6.33;5.80;;;;;;;25.80;47.48;94869.28;6157528;28;103754;-52
2022/06/23 07:36:04;;;;;;;6.77;6.13;;;;;;;25.81;47.57;94886.13;6163281;28;102938;-52
2022/06/23 07:39:11;;;;;;;7.13;6.40;;;;;;;25.81;47.72;94886.13;6159063;28;103859;-52
2022/06/23 07:42:21;;;;;;;6.97;6.37;;;;;;;25.82;47.36;94871.63;6127203;28;103926;-53
2022/06/23 07:45:29;;;;;;;6.50;5.90;;;;;;;25.82;47.43;94885.81;6139554;28;104170;-53
2022/06/23 07:48:35;;;;;;;6.70;6.10;;;;;;;25.85;47.11;94887.81;6138522;28;104108;-53
2022/06/23 07:51:41;;;;;;;6.43;5.73;;;;;;;25.88;47.36;94899.78;6139450;28;104803;-52
2022/06/23 07:54:44;;;;;;;7.17;6.37;;;;;;;25.91;47.25;94899.13;6128760;28;103984;-53
2022/06/23 07:57:48;;;;;;;6.60;6.00;;;;;;;25.93;47.30;94904.94;6137977;28;104020;-52
2022/06/23 08:00:56;;;;;;;7.47;5.80;;;;;;;25.96;47.32;94904.25;6138578;28;103791;-53
2022/06/23 08:04:05;;;;;;;6.77;6.13;;;;;;;25.95;47.49;94902.69;6130580;28;104787;-55
2022/06/23 08:07:12;;;;;;;6.30;5.70;;;;;;;25.97;47.76;94895.09;6138008;28;103652;-52
2022/06/23 08:10:20;;;;;;;6.33;5.73;;;;;;;25.97;48.02;94905.81;6139108;28;104268;-52
2022/06/23 08:13:27;;;;;;;6.10;5.60;;;;;;;25.98;47.72;94891.28;6138476;28;104838;-51
2022/06/23 08:19:57;;;;;;;6.27;5.77;;;;;;;26.01;48.04;94912.09;6137963;28;103417;-53
2022/06/23 08:23:03;;;;;;;8.80;6.80;;;;;;;26.03;48.22;94893.78;6137836;28;103749;-52
2022/06/23 08:26:08;;;;;;;6.63;5.70;;;;;;;25.87;48.73;94888.25;6135454;28;103723;-53
2022/06/23 08:29:18;;;;;;;6.20;5.60;;;;;;;25.97;48.37;94892.41;6131419;28;103737;-52
2022/06/23 08:32:22;;;;;;;6.30;5.70;;;;;;;25.99;48.36;94892.88;6137710;28;103663;-53
2022/06/23 08:35:32;;;;;;;5.73;5.23;;;;;;;26.01;48.62;94879.16;6136672;28;104257;-54
2022/06/23 08:38:43;;;;;;;10.73;6.17;;;;;;;25.92;48.10;94888.06;6127678;28;103731;-53
2022/06/23 08:41:55;;;;;;;5.33;4.63;;;;;;;25.92;48.41;94889.97;6161548;28;104045;-52
2022/06/23 08:45:18;;;;;;;4.63;4.20;;;;;;;25.94;47.58;94874.31;6161731;28;103703;-53
2022/06/23 08:48:26;;;;;;;5.10;4.60;;;;;;;25.84;47.62;94869.38;6160836;28;103618;-52
2022/06/23 08:51:42;;;;;;;5.13;4.73;;;;;;;25.96;47.10;94875.53;6151646;28;105094;-52
2022/06/23 08:54:56;;;;;;;5.60;4.47;;;;;;;26.03;47.15;94869.66;6161383;28;103756;-52
2022/06/23 08:58:07;;;;;;;6.17;4.43;;;;;;;26.08;47.77;94868.66;6161613;28;103833;-52
2022/06/23 09:01:15;;;;;;;4.43;4.07;;;;;;;26.09;47.04;94862.97;6150631;28;103791;-53
2022/06/23 09:04:26;;;;;;;6.30;4.83;;;;;;;26.13;47.17;94860.38;6160781;28;103704;-53
2022/06/23 09:07:43;;;;;;;5.27;4.77;;;;;;;26.14;47.57;94861.94;6160713;28;103703;-52
2022/06/23 09:10:56;;;;;;;8.33;7.60;;;;;;;26.19;47.88;94859.81;6160808;28;103714;-53
2022/06/23 09:14:14;;;;;;;6.80;6.10;;;;;;;26.18;47.61;94855.56;6150160;28;103921;-52
2022/06/23 09:17:43;;;;;;;7.50;5.33;;;;;;;26.17;47.42;94854.00;6160843;28;104881;-52
2022/06/23 09:21:02;;;;;;;6.40;5.80;;;;;;;26.17;47.99;94848.63;6161040;28;104000;-51
2022/06/23 09:24:58;;;;;;;7.47;5.90;;;;;;;26.19;47.59;94849.06;6150189;28;106504;-53
2022/06/23 09:28:18;;;;;;;6.17;5.63;;;;;;;26.19;47.38;94849.06;6158661;28;104349;-54
2022/06/23 09:31:29;;;;;;;7.10;5.77;;;;;;;26.21;47.70;94841.50;6161014;28;103974;-52
2022/06/23 09:34:46;;;;;;;5.33;4.73;;;;;;;26.17;47.73;94834.44;6155192;28;103776;-52
2022/06/23 09:38:08;;;;;;;5.10;4.60;;;;;;;26.19;47.15;94827.63;6160789;28;103892;-52
2022/06/23 09:41:28;;;;;;;5.93;5.37;;;;;;;26.23;47.62;94827.75;6138075;28;104006;-51
2022/06/23 09:44:46;;;;;;;5.70;5.20;;;;;;;26.26;47.75;94816.34;6136333;28;103834;-52
2022/06/23 09:48:21;;;;;;;9.20;6.97;;;;;;;26.27;48.38;94820.59;6125864;28;103724;-52
2022/06/23 09:51:57;;;;;;;6.40;5.80;;;;;;;26.27;47.96;94816.00;6131104;28;103923;-56
2022/06/23 09:55:45;;;;;;;6.53;5.30;;;;;;;26.27;47.98;94816.00;6136626;28;105302;-54
2022/06/23 09:59:32;;;;;;;5.33;4.83;;;;;;;26.28;47.72;94817.56;6005020;28;104253;-53
2022/06/23 10:02:52;;;;;;;5.17;4.67;;;;;;;26.27;47.87;94824.03;6096621;28;104055;-64
2022/06/23 10:06:12;;;;;;;5.57;5.10;;;;;;;26.27;47.80;94817.91;6136388;28;103692;-54
2022/06/23 10:09:29;;;;;;;6.20;5.60;;;;;;;26.27;47.88;94813.31;6125629;28;103419;-54
2022/06/23 10:12:50;;;;;;;5.77;5.23;;;;;;;26.27;48.15;94812.53;6135733;28;104037;-53
2022/06/23 10:16:09;;;;;;;5.93;5.30;;;;;;;26.27;48.54;94810.63;6134977;28;103852;-54
2022/06/23 10:19:44;;;;;;;7.43;5.50;;;;;;;26.27;48.65;94813.31;6135742;28;103827;-54
2022/06/23 10:23:16;;;;;;;5.63;5.13;;;;;;;26.25;47.92;94820.94;6129987;28;104268;-54
2022/06/23 10:26:49;;;;;;;6.00;5.40;;;;;;;26.24;47.99;94808.63;6127760;28;103697;-57
2022/06/23 10:30:08;;;;;;;5.47;5.00;;;;;;;26.26;47.86;94805.59;6139615;28;103905;-54
2022/06/23 10:33:51;;;;;;;6.00;5.40;;;;;;;26.23;48.09;94784.81;6129896;28;105370;-54
2022/06/23 10:37:28;;;;;;;8.13;5.30;;;;;;;26.24;47.96;94783.72;6140427;28;105194;-73
2022/06/23 10:40:47;;;;;;;6.03;4.77;;;;;;;26.23;47.85;94779.47;6135791;28;103736;-54
2022/06/23 10:44:08;;;;;;;4.60;4.20;;;;;;;26.24;48.12;94781.03;6128844;28;103903;-54
2022/06/23 10:47:23;;;;;;;7.20;5.10;;;;;;;26.23;47.66;94772.19;6139708;28;104862;-53
2022/06/23 10:50:41;;;;;;;5.47;4.97;;;;;;;26.23;47.89;94772.19;6139343;28;104953;-54
2022/06/23 10:54:11;;;;;;;4.90;4.50;;;;;;;26.21;48.01;94766.41;6134323;28;103905;-56
2022/06/23 10:58:03;;;;;;;8.13;7.53;;;;;;;26.11;47.91;94766.84;6137772;28;103682;-56
2022/06/23 11:01:22;;;;;;;8.53;7.40;;;;;;;26.17;47.97;94762.03;6139227;28;103766;-54
2022/06/23 11:04:52;;;;;;;9.30;6.90;;;;;;;26.19;47.55;94767.81;6139624;28;106014;-54
2022/06/23 11:08:12;;;;;;;8.13;7.33;;;;;;;26.12;48.52;94768.41;6123183;28;104065;-54
2022/06/23 11:11:38;;;;;;;10.03;8.70;;;;;;;26.11;48.61;94753.44;6139881;28;104935;-66
2022/06/23 11:14:54;;;;;;;9.80;8.70;;;;;;;26.14;48.75;94762.69;6139337;28;103185;-54
2022/06/23 11:18:21;;;;;;;9.67;8.90;;;;;;;26.14;48.48;94758.13;6128897;28;104143;-54
2022/06/23 11:21:41;;;;;;;10.40;9.50;;;;;;;26.08;49.05;94767.53;6138996;28;104401;-53
2022/06/23 11:24:55;;;;;;;10.47;9.47;;;;;;;26.06;49.63;94759.03;6137547;28;104298;-54
2022/06/23 11:28:08;;;;;;;9.83;8.87;;;;;;;26.03;49.52;94765.06;6134463;28;103977;-54
2022/06/23 11:31:26;;;;;;;9.67;8.30;;;;;;;26.07;49.68;94767.88;6132955;28;103677;-50
2022/06/23 11:34:48;;;;;;;8.57;7.80;;;;;;;26.11;49.45;94768.75;6138774;28;103631;-51
2022/06/23 11:38:07;;;;;;;8.57;7.43;;;;;;;26.13;49.04;94769.19;6138599;28;103942;-50
2022/06/23 11:41:27;;;;;;;8.30;7.50;;;;;;;26.13;49.18;94766.50;6149751;28;103690;-51
2022/06/23 11:44:48;;;;;;;8.03;7.20;;;;;;;26.14;49.01;94774.22;6162818;28;103937;-51
2022/06/23 11:48:05;;;;;;;7.43;6.80;;;;;;;26.15;49.18;94772.31;6162639;28;103764;-51
2022/06/23 11:51:21;;;;;;;7.60;7.00;;;;;;;26.14;49.49;94774.22;6152679;28;104130;-51
2022/06/23 11:54:48;;;;;;;8.00;7.30;;;;;;;26.14;49.09;94787.63;6162150;28;104225;-51
2022/06/23 11:58:22;;;;;;;7.97;7.43;;;;;;;26.16;49.65;94773.88;6161396;28;103700;-51
2022/06/23 12:01:28;;;;;;;8.50;7.67;;;;;;;26.15;49.31;94775.78;6162078;28;103688;-60
2022/06/23 12:05:07;;;;;;;7.70;6.90;;;;;;;26.17;49.64;94772.75;6151563;28;104141;-51
2022/06/23 12:08:32;;;;;;;7.67;6.97;;;;;;;26.18;49.93;94772.41;6162031;28;103966;-51
2022/06/23 12:11:37;;;;;;;9.17;6.73;;;;;;;26.19;49.95;94765.91;6162804;28;104884;-51
2022/06/23 12:14:41;;;;;;;7.53;6.80;;;;;;;26.19;49.32;94763.25;6150589;28;103824;-51
2022/06/23 12:17:50;;;;;;;8.80;6.77;;;;;;;26.19;49.46;94749.81;6162166;28;103975;-51
2022/06/23 12:21:00;;;;;;;7.23;6.60;;;;;;;26.20;48.81;94743.34;6163288;28;104854;-52
2022/06/23 12:24:14;;;;;;;6.70;6.10;;;;;;;26.22;49.23;94751.06;6161724;28;103728;-52
2022/06/23 12:27:25;;;;;;;6.93;6.23;;;;;;;26.21;48.77;94752.16;6151376;28;104676;-50
2022/06/23 12:30:34;;;;;;;6.83;5.90;;;;;;;26.20;48.65;94762.13;6160977;28;104726;-71
2022/06/23 12:33:45;;;;;;;7.10;6.40;;;;;;;26.20;48.51;94746.03;6161805;28;103804;-51
2022/06/23 12:37:00;;;;;;;8.40;6.47;;;;;;;26.22;48.20;94741.13;6151773;28;104895;-51
2022/06/23 12:40:08;;;;;;;6.83;6.20;;;;;;;26.21;48.41;94739.56;6149162;28;104505;-51
2022/06/23 12:43:19;;;;;;;7.20;5.70;;;;;;;26.22;48.43;94734.97;6138163;28;104962;-51
2022/06/23 12:46:39;;;;;;;7.93;6.30;;;;;;;26.22;47.97;94734.97;6136611;28;103910;-51
2022/06/23 12:50:01;;;;;;;11.30;6.90;;;;;;;26.22;48.27;94730.41;6127298;28;103710;-51
2022/06/23 12:53:22;;;;;;;9.97;7.33;;;;;;;26.22;48.25;94730.41;6137730;28;104766;-51
2022/06/23 12:56:47;;;;;;;8.97;6.83;;;;;;;26.23;47.83;94728.50;6136617;28;103628;-51
2022/06/23 12:59:57;;;;;;;12.17;7.90;;;;;;;26.21;48.09;94723.47;6126184;28;103833;-51
2022/06/23 13:03:18;;;;;;;7.83;6.97;;;;;;;26.21;47.85;94728.84;6136376;28;103928;-51
2022/06/23 13:06:33;;;;;;;8.70;6.80;;;;;;;26.21;47.69;94738.75;6137213;28;105148;-51
2022/06/23 13:09:42;;;;;;;8.37;7.30;;;;;;;26.20;47.77;94743.34;6137020;28;104006;-51
2022/06/23 13:13:10;;;;;;;9.57;6.50;;;;;;;26.19;47.84;94744.47;6132019;28;106248;-51
2022/06/23 13:16:18;;;;;;;8.67;7.00;;;;;;;26.19;47.75;94752.50;6136069;28;103674;-51
2022/06/23 13:19:29;;;;;;;10.07;6.80;;;;;;;26.19;47.83;94765.16;6136772;28;103755;-51
2022/06/23 13:22:59;;;;;;;7.87;6.90;;;;;;;26.20;48.48;94767.47;6126683;28;103367;-51
2022/06/23 13:26:06;;;;;;;7.70;6.37;;;;;;;26.19;48.06;94757.88;6136725;28;103947;-51
2022/06/23 13:29:17;;;;;;;7.13;6.50;;;;;;;26.19;47.84;94773.97;6136079;28;104097;-50
2022/06/23 13:32:26;;;;;;;8.63;6.37;;;;;;;26.18;48.18;94775.09;6136933;28;104772;-50
2022/06/23 13:35:35;;;;;;;7.80;7.00;;;;;;;26.18;48.11;94767.03;6128112;28;105737;-50
2022/06/23 13:38:46;;;;;;;11.17;7.20;;;;;;;26.18;48.54;94777.78;6137367;28;103616;-51
2022/06/23 13:41:55;;;;;;;8.37;7.53;;;;;;;26.19;48.53;94771.28;6161164;28;104827;-56
2022/06/23 13:45:06;;;;;;;8.40;7.70;;;;;;;26.20;48.80;94770.16;6150099;28;103877;-49
2022/06/23 13:48:20;;;;;;;8.50;7.70;;;;;;;26.20;48.25;94780.91;6160313;28;103917;-52
2022/06/23 13:51:29;;;;;;;8.93;8.13;;;;;;;26.19;48.24;94781.25;6160122;28;103654;-51
2022/06/23 13:54:40;;;;;;;8.83;8.03;;;;;;;26.18;48.52;94796.56;6160336;28;103680;-51
2022/06/23 13:57:50;;;;;;;9.80;8.80;;;;;;;26.18;48.28;94793.88;6149475;28;105342;-52
2022/06/23 14:00:58;;;;;;;9.83;9.03;;;;;;;26.17;48.42;94788.84;6159752;28;103668;-51
2022/06/23 14:04:05;;;;;;;9.20;8.30;;;;;;;26.17;48.13;94786.16;6159213;28;104162;-51
2022/06/23 14:07:15;;;;;;;9.50;8.73;;;;;;;26.17;48.56;94786.94;6153632;28;104310;-51
2022/06/23 14:10:29;;;;;;;10.00;9.17;;;;;;;26.15;48.17;94789.19;6158954;28;104377;-50
2022/06/23 14:13:37;;;;;;;9.97;8.97;;;;;;;26.18;47.89;94790.41;6159791;28;103455;-51
2022/06/23 14:16:49;;;;;;;9.93;9.03;;;;;;;26.16;48.32;94790.75;6159700;28;103821;-51
2022/06/23 14:19:59;;;;;;;10.37;9.37;;;;;;;26.15;47.98;94804.50;6149718;28;103669;-51
2022/06/23 14:23:07;;;;;;;10.30;9.40;;;;;;;26.18;48.12;94799.22;6159470;28;103677;-50
2022/06/23 14:26:16;;;;;;;10.60;9.70;;;;;;;26.16;47.70;94808.75;6159730;28;103771;-50
2022/06/23 14:29:26;;;;;;;11.77;10.80;;;;;;;26.18;47.98;94809.19;6156954;28;103745;-54
2022/06/23 14:32:37;;;;;;;13.00;11.90;;;;;;;26.16;48.06;94798.00;6154868;28;105089;-51
2022/06/23 14:35:49;;;;;;;13.37;12.30;;;;;;;26.15;47.37;94783.81;6159397;28;103873;-51
2022/06/23 14:38:59;;;;;;;13.50;12.23;;;;;;;26.14;48.00;94779.56;6155747;28;103762;-51
2022/06/23 14:42:24;;;;;;;14.20;13.10;;;;;;;26.15;47.58;94788.41;6125615;28;105058;-51
2022/06/23 14:45:45;;;;;;;16.27;14.97;;;;;;;26.15;47.81;94767.72;6135632;28;104894;-51
2022/06/23 14:49:08;;;;;;;16.83;15.50;;;;;;;26.15;47.27;94758.91;6134453;28;104111;-57
2022/06/23 14:52:22;;;;;;;15.93;14.63;;;;;;;26.13;47.64;94753.88;6130178;28;104926;-56
2022/06/23 14:55:31;;;;;;;16.53;15.03;;;;;;;26.14;47.25;94755.44;6105662;28;104756;-56
2022/06/23 14:58:45;;;;;;;19.87;18.37;;;;;;;26.11;47.04;94741.94;6110903;28;103524;-55
2022/06/23 15:02:00;;;;;;;19.80;18.27;;;;;;;26.13;46.77;94755.78;6111630;28;103709;-54
2022/06/23 15:05:12;;;;;;;17.70;16.40;;;;;;;26.14;47.01;94746.59;6116951;28;104039;-56